Time;durP1;ratioP1;P1;durP2;ratioP2;P2;SDS_P1;SDS_P2;PMS_P1;PMS_P2;Temp;Humidity;BMP_temperature;BMP_pressure;BME280_temperature;BME280_humidity;BME280_pressure;Samples;Min_cycle;Max_cycle;Signal;HPM_P1;HPM_P2
2023/10/29 00:01:42;;;;;;;16.90;13.60;;;;;;;8.92;93.91;99644.70;108956;277;38858;-70
2023/10/29 00:04:19;;;;;;;16.10;12.60;;;;;;;8.94;93.78;99649.84;108952;277;38252;-70
2023/10/29 00:06:58;;;;;;;17.00;13.40;;;;;;;8.96;93.75;99651.85;108963;277;38184;-70
2023/10/29 00:09:32;;;;;;;17.90;14.00;;;;;;;9.00;94.14;99652.00;108962;277;39372;-70
2023/10/29 00:12:17;;;;;;;18.50;15.00;;;;;;;9.03;94.17;99653.27;108950;277;38361;-70
2023/10/29 00:14:53;;;;;;;19.50;15.00;;;;;;;8.98;93.60;99648.96;108942;277;38622;-67
2023/10/29 00:17:32;;;;;;;15.80;13.00;;;;;;;8.98;93.88;99645.31;109016;277;38743;-70
2023/10/29 00:20:09;;;;;;;18.90;13.40;;;;;;;9.03;94.15;99638.33;108981;277;38301;-70
2023/10/29 00:22:43;;;;;;;20.90;14.90;;;;;;;9.07;94.12;99633.13;109004;277;38182;-72
2023/10/29 00:25:17;;;;;;;18.20;14.40;;;;;;;9.07;93.93;99633.81;108937;277;38264;-70
2023/10/29 00:27:51;;;;;;;18.60;14.50;;;;;;;9.05;93.96;99635.45;108966;277;38938;-71
2023/10/29 00:30:25;;;;;;;20.10;14.90;;;;;;;9.05;93.81;99634.22;108916;277;39902;-70
2023/10/29 00:33:03;;;;;;;17.20;13.40;;;;;;;9.03;93.61;99634.83;108933;277;39294;-70
2023/10/29 00:35:42;;;;;;;16.80;14.00;;;;;;;9.02;93.71;99627.55;108957;277;39386;-70
2023/10/29 00:38:18;;;;;;;20.30;14.90;;;;;;;9.04;93.83;99626.25;108930;277;38226;-68
2023/10/29 00:40:57;;;;;;;22.20;16.00;;;;;;;9.02;93.62;99630.72;108947;277;38415;-69
2023/10/29 00:46:13;;;;;;;21.80;15.50;;;;;;;8.97;93.92;99625.36;108956;277;39631;-70
2023/10/29 00:48:48;;;;;;;22.30;16.40;;;;;;;9.00;94.04;99624.16;108976;277;40068;-70
2023/10/29 00:51:22;;;;;;;22.40;17.30;;;;;;;9.04;94.16;99628.37;108924;277;38480;-71
2023/10/29 00:53:58;;;;;;;22.90;16.60;;;;;;;9.07;94.31;99630.16;109012;277;38257;-68
2023/10/29 00:56:36;;;;;;;20.90;15.20;;;;;;;9.07;94.12;99626.66;109018;277;38703;-67
2023/10/29 00:59:15;;;;;;;21.90;15.90;;;;;;;9.06;93.93;99632.11;109035;277;39568;-70
2023/10/29 01:01:50;;;;;;;22.20;15.70;;;;;;;9.06;93.81;99636.27;108915;277;38475;-72
2023/10/29 01:04:30;;;;;;;22.70;16.30;;;;;;;9.00;93.75;99643.67;108954;277;172792;-71
2023/10/29 01:07:04;;;;;;;21.60;16.40;;;;;;;8.93;93.42;99647.96;109000;277;38445;-71
2023/10/29 01:09:43;;;;;;;20.70;15.70;;;;;;;8.93;94.16;99651.48;108992;278;39640;-66
2023/10/29 01:12:20;;;;;;;21.30;15.40;;;;;;;8.96;94.38;99649.75;108980;277;38453;-69
2023/10/29 01:14:59;;;;;;;23.20;16.10;;;;;;;8.99;94.46;99645.77;108857;277;172807;-68
2023/10/29 01:17:36;;;;;;;22.40;16.80;;;;;;;9.03;94.37;99642.68;109031;277;38462;-70
2023/10/29 01:20:13;;;;;;;28.50;19.60;;;;;;;9.07;94.44;99648.97;108982;277;38308;-70
2023/10/29 01:22:47;;;;;;;24.70;18.90;;;;;;;9.07;94.27;99651.90;109041;277;37478;-68
2023/10/29 01:25:25;;;;;;;31.60;19.70;;;;;;;8.97;93.67;99651.79;108978;277;38811;-67
2023/10/29 01:28:01;;;;;;;27.80;19.40;;;;;;;8.93;94.13;99654.09;108999;277;38652;-72
2023/10/29 01:30:36;;;;;;;25.50;18.20;;;;;;;8.98;94.50;99655.09;108981;277;38953;-70
2023/10/29 01:33:12;;;;;;;28.00;19.70;;;;;;;9.03;94.65;99655.55;109023;277;38508;-69
2023/10/29 01:35:48;;;;;;;26.00;18.70;;;;;;;9.07;94.56;99654.84;108962;277;39924;-70
2023/10/29 01:38:25;;;;;;;25.50;18.20;;;;;;;9.06;94.24;99656.99;109011;277;39925;-67
2023/10/29 01:41:03;;;;;;;27.20;18.70;;;;;;;9.00;94.17;99650.60;108976;277;38219;-67
2023/10/29 01:43:40;;;;;;;27.10;18.50;;;;;;;9.00;94.23;99646.63;109017;277;38230;-68
2023/10/29 01:46:17;;;;;;;28.50;19.90;;;;;;;9.05;94.52;99646.39;109021;277;38428;-68
2023/10/29 01:48:51;;;;;;;32.90;22.00;;;;;;;9.06;94.26;99642.55;109066;277;38496;-70
2023/10/29 01:51:27;;;;;;;29.00;20.00;;;;;;;9.03;94.36;99654.34;109038;277;39649;-70
2023/10/29 01:54:10;;;;;;;28.30;18.80;;;;;;;9.02;94.28;99655.91;109009;277;39374;-67
2023/10/29 01:56:48;;;;;;;26.00;19.20;;;;;;;9.00;94.47;99654.44;108962;277;38236;-68
2023/10/29 01:59:24;;;;;;;26.40;18.40;;;;;;;9.03;94.52;99663.55;109012;277;40052;-70
2023/10/29 02:01:58;;;;;;;25.50;18.70;;;;;;;9.08;94.47;99667.00;109079;277;38335;-70
2023/10/29 02:04:33;;;;;;;29.00;19.70;;;;;;;9.07;94.26;99669.66;109080;278;38567;-71
2023/10/29 02:07:13;;;;;;;30.70;19.60;;;;;;;9.05;94.19;99669.73;109105;278;38323;-70
2023/10/29 02:09:52;;;;;;;30.90;19.80;;;;;;;9.00;94.29;99664.56;109011;278;38785;-67
2023/10/29 02:12:28;;;;;;;30.80;20.10;;;;;;;8.98;94.18;99669.35;108969;277;39614;-70
2023/10/29 02:15:05;;;;;;;31.60;20.80;;;;;;;8.98;94.30;99670.05;108960;278;38603;-70
2023/10/29 02:17:42;;;;;;;32.70;21.00;;;;;;;9.00;94.44;99660.70;108958;277;38320;-69
2023/10/29 02:20:19;;;;;;;29.90;19.70;;;;;;;8.97;94.16;99669.22;108948;278;39560;-71
2023/10/29 02:23:04;;;;;;;29.10;19.70;;;;;;;8.93;94.21;99674.59;108972;278;39722;-67
2023/10/29 02:25:47;;;;;;;30.00;19.50;;;;;;;8.92;94.40;99674.25;108925;277;38682;-68
2023/10/29 02:28:22;;;;;;;34.10;21.60;;;;;;;8.96;94.57;99675.14;108974;278;38582;-71
2023/10/29 02:31:00;;;;;;;30.00;20.20;;;;;;;8.98;94.61;99688.09;108960;278;38262;-70
2023/10/29 02:33:34;;;;;;;28.60;18.50;;;;;;;8.97;94.50;99691.99;108990;277;38774;-69
2023/10/29 02:36:10;;;;;;;28.10;18.90;;;;;;;8.93;94.53;99693.73;108910;278;38820;-67
2023/10/29 02:38:48;;;;;;;28.10;18.70;;;;;;;8.94;94.52;99688.98;108970;278;39884;-67
2023/10/29 02:41:30;;;;;;;26.90;18.40;;;;;;;8.93;94.28;99685.20;108921;277;38608;-67
2023/10/29 02:44:10;;;;;;;28.30;19.30;;;;;;;8.95;94.46;99684.92;109010;278;38218;-69
2023/10/29 02:46:44;;;;;;;30.80;19.50;;;;;;;8.99;94.78;99680.43;108933;278;38881;-70
2023/10/29 02:49:19;;;;;;;28.60;19.30;;;;;;;8.98;94.67;99683.42;108404;278;730379;-68
2023/10/29 02:51:59;;;;;;;25.30;17.40;;;;;;;8.97;94.69;99690.61;108979;278;38639;-67
2023/10/29 02:54:34;;;;;;;25.40;17.50;;;;;;;8.96;94.54;99690.10;109016;277;38473;-70
2023/10/29 02:57:13;;;;;;;23.10;16.00;;;;;;;8.92;94.35;99689.40;108960;277;38509;-70
2023/10/29 02:59:56;;;;;;;25.10;17.00;;;;;;;8.89;94.32;99690.39;108939;277;38179;-67
2023/10/29 03:02:32;;;;;;;24.20;16.90;;;;;;;8.87;94.39;99692.92;108995;277;39330;-70
2023/10/29 03:05:10;;;;;;;27.20;17.90;;;;;;;8.86;94.63;99688.98;108967;277;38630;-71
2023/10/29 03:07:45;;;;;;;23.60;17.10;;;;;;;8.87;94.73;99687.91;108946;277;172774;-70
2023/10/29 03:10:20;;;;;;;20.90;15.30;;;;;;;8.86;94.65;99686.02;108958;277;39320;-71
2023/10/29 03:12:55;;;;;;;22.10;16.30;;;;;;;8.89;95.02;99689.87;109052;277;38832;-68
2023/10/29 03:15:36;;;;;;;23.70;16.60;;;;;;;8.92;94.97;99694.11;108945;277;38489;-67
2023/10/29 03:18:15;;;;;;;23.80;16.40;;;;;;;8.85;94.44;99692.33;108972;277;39685;-68
2023/10/29 03:20:53;;;;;;;23.30;15.40;;;;;;;8.83;94.94;99689.98;108951;277;39045;-68
2023/10/29 03:23:31;;;;;;;24.40;16.30;;;;;;;8.86;94.85;99690.89;108979;277;39750;-68
2023/10/29 03:26:09;;;;;;;25.80;16.10;;;;;;;8.87;94.90;99694.34;108911;277;38929;-68
2023/10/29 03:28:47;;;;;;;27.50;18.20;;;;;;;8.83;94.96;99695.70;108940;277;38585;-70
2023/10/29 03:31:28;;;;;;;23.50;15.10;;;;;;;8.83;95.26;99695.71;108934;277;38696;-68
2023/10/29 03:34:04;;;;;;;23.90;16.80;;;;;;;8.84;94.97;99689.74;108942;277;38496;-71
2023/10/29 03:36:40;;;;;;;28.00;17.70;;;;;;;8.84;95.08;99688.55;108971;277;40112;-71
2023/10/29 03:39:16;;;;;;;27.30;17.70;;;;;;;8.82;94.96;99688.27;109000;277;38531;-68
2023/10/29 03:41:53;;;;;;;26.90;17.70;;;;;;;8.80;94.93;99689.58;108890;277;39624;-68
2023/10/29 03:44:36;;;;;;;27.80;17.20;;;;;;;8.79;95.31;99689.61;108961;277;39011;-67
2023/10/29 03:47:16;;;;;;;30.20;17.50;;;;;;;8.81;95.55;99693.70;109001;277;39413;-67
2023/10/29 03:49:59;;;;;;;26.10;17.40;;;;;;;8.83;95.45;99698.67;108998;277;39651;-67
2023/10/29 03:52:35;;;;;;;29.50;17.50;;;;;;;8.85;95.56;99695.11;108983;277;38491;-70
2023/10/29 03:55:13;;;;;;;30.60;19.10;;;;;;;8.85;95.54;99683.11;108867;277;175417;-70
2023/10/29 03:57:46;;;;;;;29.30;18.40;;;;;;;8.86;95.75;99684.80;108974;277;38838;-68
2023/10/29 04:00:32;;;;;;;27.30;17.50;;;;;;;8.88;95.76;99688.20;108970;277;38704;-68
2023/10/29 04:03:11;;;;;;;27.10;16.30;;;;;;;8.93;95.91;99679.66;108990;277;38632;-74
2023/10/29 04:05:45;;;;;;;29.20;18.80;;;;;;;8.98;95.84;99676.10;108951;277;38437;-70
2023/10/29 04:08:25;;;;;;;27.20;17.30;;;;;;;9.00;95.82;99677.25;108979;277;40024;-68
2023/10/29 04:11:01;;;;;;;30.40;18.00;;;;;;;9.01;95.91;99675.31;108940;277;38168;-67
2023/10/29 04:13:44;;;;;;;30.30;17.80;;;;;;;8.96;95.58;99676.73;108952;277;38267;-68
2023/10/29 04:16:24;;;;;;;28.40;17.90;;;;;;;8.94;95.47;99676.79;108961;277;38382;-67
2023/10/29 04:19:05;;;;;;;24.80;16.30;;;;;;;8.93;95.64;99672.84;108961;277;38344;-70
2023/10/29 04:21:38;;;;;;;27.70;18.00;;;;;;;8.98;95.88;99666.88;108968;277;38490;-70
2023/10/29 04:24:15;;;;;;;31.70;18.30;;;;;;;9.02;95.97;99663.06;109015;277;39849;-70
2023/10/29 04:26:49;;;;;;;33.10;19.40;;;;;;;9.03;96.04;99664.41;108961;277;40152;-70
2023/10/29 04:29:28;;;;;;;30.10;18.00;;;;;;;9.02;95.97;99663.39;109024;277;38351;-67
2023/10/29 04:32:08;;;;;;;29.90;17.40;;;;;;;9.02;95.62;99676.27;108948;277;39733;-67
2023/10/29 04:34:47;;;;;;;28.80;16.90;;;;;;;9.02;95.61;99681.18;108844;277;175478;-67
2023/10/29 04:37:28;;;;;;;32.30;18.30;;;;;;;9.03;95.49;99681.61;108954;277;38228;-69
2023/10/29 04:40:13;;;;;;;31.10;19.20;;;;;;;8.97;95.44;99681.53;108967;277;39842;-68
2023/10/29 04:42:53;;;;;;;28.60;18.20;;;;;;;8.96;95.70;99682.08;108977;277;38262;-69
2023/10/29 04:45:34;;;;;;;28.70;17.30;;;;;;;8.98;95.78;99681.87;108966;277;39922;-68
2023/10/29 04:48:09;;;;;;;31.00;19.00;;;;;;;8.96;95.63;99679.83;108966;277;38627;-71
2023/10/29 04:50:44;;;;;;;34.70;19.10;;;;;;;8.99;96.11;99685.27;108934;277;38871;-71
2023/10/29 04:53:23;;;;;;;34.90;19.60;;;;;;;9.01;96.11;99687.65;108964;277;39770;-67
2023/10/29 04:56:07;;;;;;;35.50;18.90;;;;;;;9.01;96.24;99690.94;108944;277;38150;-67
2023/10/29 04:58:42;;;;;;;30.90;18.60;;;;;;;9.01;95.99;99685.55;108956;277;38659;-71
2023/10/29 05:01:17;;;;;;;32.10;19.30;;;;;;;9.00;95.90;99683.30;109008;277;39402;-71
2023/10/29 05:03:59;;;;;;;35.10;21.20;;;;;;;9.02;96.18;99686.38;108998;277;38277;-67
2023/10/29 05:06:36;;;;;;;;;;;;;;;9.06;96.29;99687.95;108843;277;175132;-67
2023/10/29 05:09:17;;;;;;;38.10;19.90;;;;;;;9.05;96.72;99689.89;108947;277;38712;-68
2023/10/29 05:11:54;;;;;;;34.80;18.60;;;;;;;9.06;96.72;99691.25;108921;277;38295;-69
2023/10/29 05:14:33;;;;;;;31.10;19.00;;;;;;;9.04;96.18;99689.95;108978;277;38217;-67
2023/10/29 05:17:13;;;;;;;32.50;18.10;;;;;;;9.01;96.05;99695.64;108939;277;38467;-68
2023/10/29 05:19:49;;;;;;;34.70;19.70;;;;;;;9.04;96.34;99700.02;109003;277;38209;-71
2023/10/29 05:22:25;;;;;;;34.40;19.50;;;;;;;9.06;96.55;99692.11;108965;277;39806;-69
2023/10/29 05:25:08;;;;;;;37.40;19.80;;;;;;;9.01;96.10;99688.66;108940;277;39811;-68
2023/10/29 05:27:56;;;;;;;33.30;19.30;;;;;;;9.01;96.45;99693.89;108957;277;38443;-67
2023/10/29 05:30:37;;;;;;;33.40;20.00;;;;;;;9.05;96.56;99692.66;108940;277;38358;-68
2023/10/29 05:33:14;;;;;;;35.50;20.40;;;;;;;9.10;96.77;99700.31;108322;277;915038;-70
2023/10/29 05:35:51;;;;;;;37.60;20.60;;;;;;;9.13;96.82;99705.25;108979;277;38283;-72
2023/10/29 05:38:28;;;;;;;35.50;19.60;;;;;;;9.13;96.72;99710.46;108971;277;38567;-68
2023/10/29 05:41:08;;;;;;;32.70;18.70;;;;;;;9.14;96.77;99714.59;108944;277;39695;-68
2023/10/29 05:43:48;;;;;;;35.40;19.70;;;;;;;9.15;96.71;99714.73;108971;277;39615;-68
2023/10/29 05:46:29;;;;;;;35.50;21.20;;;;;;;9.19;96.82;99718.21;108973;277;38665;-67
2023/10/29 05:49:15;;;;;;;38.40;21.10;;;;;;;9.22;96.95;99724.66;108932;277;38294;-67
2023/10/29 05:51:58;;;;;;;37.40;20.80;;;;;;;9.23;96.99;99739.23;108948;277;38716;-69
2023/10/29 05:54:34;;;;;;;35.50;20.20;;;;;;;9.22;96.94;99740.85;109002;277;39221;-71
2023/10/29 05:57:11;;;;;;;31.20;19.30;;;;;;;9.26;97.05;99743.28;108974;277;39931;-71
2023/10/29 05:59:48;;;;;;;38.10;21.20;;;;;;;9.30;97.03;99747.48;108958;277;39422;-71
2023/10/29 06:02:21;;;;;;;41.90;22.10;;;;;;;9.36;97.02;99751.92;109001;277;38173;-70
2023/10/29 06:04:57;;;;;;;44.20;22.60;;;;;;;9.35;96.77;99755.98;108966;277;38582;-70
2023/10/29 06:07:31;;;;;;;42.80;21.50;;;;;;;9.36;96.91;99759.94;108990;277;39228;-69
2023/10/29 06:10:05;;;;;;;36.10;21.00;;;;;;;9.41;97.04;99758.52;108973;277;39384;-67
2023/10/29 06:12:43;;;;;;;41.30;21.60;;;;;;;9.43;96.82;99759.48;108995;277;38250;-69
2023/10/29 06:15:19;;;;;;;44.60;22.90;;;;;;;9.41;96.71;99761.46;108938;277;39613;-68
2023/10/29 06:17:53;;;;;;;46.10;22.40;;;;;;;9.39;96.53;99772.54;108975;277;39620;-70
2023/10/29 06:20:28;;;;;;;38.60;21.70;;;;;;;9.33;96.31;99769.30;108946;277;39315;-70
2023/10/29 06:23:06;;;;;;;37.40;20.70;;;;;;;9.33;96.82;99763.56;108949;277;39652;-68
2023/10/29 06:25:46;;;;;;;39.70;21.90;;;;;;;9.39;97.20;99763.97;108945;277;38348;-68
2023/10/29 06:28:23;;;;;;;40.00;21.20;;;;;;;9.46;97.47;99766.45;108983;277;37223;-72
2023/10/29 06:30:58;;;;;;;41.80;22.10;;;;;;;9.49;97.24;99774.02;109046;277;38227;-72
2023/10/29 06:33:33;;;;;;;43.60;22.60;;;;;;;9.48;97.26;99771.59;108981;277;39386;-69
2023/10/29 06:36:15;;;;;;;43.20;21.70;;;;;;;9.49;97.29;99771.57;108989;277;39383;-68
2023/10/29 06:38:56;;;;;;;38.90;21.60;;;;;;;9.51;97.39;99772.88;108934;277;38357;-71
2023/10/29 06:41:33;;;;;;;35.60;20.00;;;;;;;9.56;97.53;99772.11;108936;277;38315;-71
2023/10/29 06:44:11;;;;;;;41.30;22.30;;;;;;;9.63;97.61;99770.77;108966;277;38630;-67
2023/10/29 06:46:48;;;;;;;41.30;22.10;;;;;;;9.68;97.91;99775.11;108987;277;38836;-68
2023/10/29 06:49:21;;;;;;;44.60;22.30;;;;;;;9.71;97.76;99774.98;108964;277;38414;-71
2023/10/29 06:51:55;;;;;;;38.60;21.90;;;;;;;9.70;97.36;99773.25;108960;277;38803;-72
2023/10/29 06:54:30;;;;;;;39.00;22.30;;;;;;;9.73;97.64;99765.64;108896;277;175100;-69
2023/10/29 06:57:08;;;;;;;39.00;22.80;;;;;;;9.80;97.83;99760.27;108987;277;38590;-68
2023/10/29 06:59:44;;;;;;;42.20;23.20;;;;;;;9.88;98.20;99760.63;108868;277;175062;-70
2023/10/29 07:02:21;;;;;;;43.00;23.30;;;;;;;9.92;98.09;99759.05;108976;277;38734;-70
2023/10/29 07:04:55;;;;;;;45.40;23.50;;;;;;;9.95;98.24;99754.02;108938;277;38165;-68
2023/10/29 07:07:31;;;;;;;41.00;22.70;;;;;;;10.03;98.43;99751.74;108966;277;39225;-70
2023/10/29 07:10:12;;;;;;;43.60;22.80;;;;;;;10.13;98.46;99746.77;108822;277;175443;-68
2023/10/29 07:13:01;;;;;;;42.30;24.20;;;;;;;10.20;98.36;99739.64;108936;277;38610;-69
2023/10/29 07:15:41;;;;;;;42.00;23.50;;;;;;;10.27;98.17;99735.17;108903;277;38245;-68
2023/10/29 07:18:16;;;;;;;42.70;23.50;;;;;;;10.34;98.40;99736.21;108972;277;38655;-70
2023/10/29 07:20:53;;;;;;;41.30;23.30;;;;;;;10.44;98.43;99732.77;108952;277;38148;-68
2023/10/29 07:23:29;;;;;;;40.70;22.10;;;;;;;10.51;98.24;99736.46;108997;277;39718;-71
2023/10/29 07:26:04;;;;;;;41.10;23.10;;;;;;;10.59;98.35;99743.03;108982;277;38671;-72
2023/10/29 07:28:41;;;;;;;44.70;23.00;;;;;;;10.72;98.70;99745.92;108992;277;39819;-71
2023/10/29 07:31:15;;;;;;;40.90;21.80;;;;;;;10.80;98.36;99746.23;108986;277;38973;-72
2023/10/29 07:33:51;;;;;;;36.10;20.30;;;;;;;10.91;98.54;99745.15;108994;277;39389;-69
2023/10/29 07:36:27;;;;;;;35.30;20.80;;;;;;;11.07;98.70;99740.16;108972;277;38513;-69
2023/10/29 07:39:06;;;;;;;32.50;20.30;;;;;;;11.19;98.44;99734.85;109001;277;38213;-69
2023/10/29 07:41:45;;;;;;;34.50;20.20;;;;;;;11.28;98.34;99730.23;108934;277;38153;-68
2023/10/29 07:44:20;;;;;;;36.00;20.70;;;;;;;11.37;98.05;99723.62;109055;277;38221;-74
2023/10/29 07:46:54;;;;;;;30.10;18.40;;;;;;;11.48;97.88;99724.30;108956;277;39336;-68
2023/10/29 07:49:31;;;;;;;34.40;19.50;;;;;;;11.63;98.09;99718.06;108993;277;38632;-69
2023/10/29 07:52:06;;;;;;;28.00;17.10;;;;;;;11.76;97.75;99713.38;108843;270;175060;-68
2023/10/29 07:54:44;;;;;;;27.10;16.30;;;;;;;11.83;96.82;99716.86;108959;277;38294;-72
2023/10/29 07:57:18;;;;;;;22.80;16.20;;;;;;;11.86;96.66;99719.13;108977;277;39981;-71
2023/10/29 07:59:52;;;;;;;21.50;15.10;;;;;;;12.02;97.19;99716.57;108938;277;39545;-71
2023/10/29 08:02:26;;;;;;;25.00;14.90;;;;;;;12.19;96.80;99716.17;109010;277;39451;-71
2023/10/29 08:05:04;;;;;;;24.60;14.70;;;;;;;12.34;96.67;99714.79;108937;277;38899;-69
2023/10/29 08:07:38;;;;;;;21.00;15.60;;;;;;;12.44;96.05;99704.28;108981;277;38201;-74
2023/10/29 08:10:17;;;;;;;22.10;14.20;;;;;;;12.59;96.08;99704.62;108987;277;38897;-74
2023/10/29 08:12:54;;;;;;;17.90;12.40;;;;;;;12.78;95.26;99700.40;108963;277;39405;-69
2023/10/29 08:15:28;;;;;;;17.00;12.80;;;;;;;12.95;94.76;99697.32;108969;277;38294;-71
2023/10/29 08:18:07;;;;;;;15.00;11.90;;;;;;;13.03;93.86;99705.92;108982;277;38850;-68
2023/10/29 08:20:43;;;;;;;13.30;10.80;;;;;;;13.11;93.40;99710.17;108997;277;39102;-70
2023/10/29 08:23:22;;;;;;;14.40;11.20;;;;;;;13.14;92.80;99708.77;108990;277;38741;-72
2023/10/29 08:25:57;;;;;;;12.20;8.90;;;;;;;13.20;92.74;99708.11;108978;277;38790;-72
2023/10/29 08:28:34;;;;;;;12.30;8.60;;;;;;;13.29;92.67;99712.46;108998;277;38172;-68
2023/10/29 08:31:14;;;;;;;11.90;8.50;;;;;;;13.43;92.39;99712.52;108993;277;38319;-68
2023/10/29 08:33:54;;;;;;;9.70;8.30;;;;;;;13.60;92.06;99712.88;108949;277;39386;-68
2023/10/29 08:36:33;;;;;;;14.00;8.30;;;;;;;13.75;92.38;99714.61;108954;277;38434;-69
2023/10/29 08:39:14;;;;;;;9.40;7.70;;;;;;;13.84;91.00;99713.66;108939;277;38590;-68
2023/10/29 08:41:53;;;;;;;10.00;7.70;;;;;;;13.95;91.06;99714.42;108862;277;38183;-68
2023/10/29 08:44:30;;;;;;;10.60;7.40;;;;;;;14.04;90.23;99711.77;108967;277;38364;-72
2023/10/29 08:47:04;;;;;;;9.30;6.60;;;;;;;14.15;90.55;99713.28;108926;277;38509;-71
2023/10/29 08:49:45;;;;;;;10.00;7.80;;;;;;;14.38;90.42;99720.12;108848;277;174828;-69
2023/10/29 08:52:20;;;;;;;8.80;6.50;;;;;;;14.59;89.85;99725.29;109007;277;39328;-71
2023/10/29 08:54:55;;;;;;;10.40;6.70;;;;;;;14.73;89.06;99727.91;108967;277;39432;-73
2023/10/29 08:57:29;;;;;;;11.30;7.10;;;;;;;14.79;88.04;99726.59;108997;277;38458;-77
2023/10/29 09:00:03;;;;;;;11.60;6.70;;;;;;;14.81;87.09;99721.88;108974;277;38646;-71
2023/10/29 09:02:38;;;;;;;9.80;6.90;;;;;;;14.87;87.43;99724.30;108972;277;38485;-72
2023/10/29 09:05:15;;;;;;;8.90;6.80;;;;;;;14.96;87.40;99718.45;108900;277;38782;-72
2023/10/29 09:07:49;;;;;;;9.10;7.00;;;;;;;15.05;87.01;99713.42;109012;277;38171;-71
2023/10/29 09:10:25;;;;;;;11.70;7.50;;;;;;;15.17;86.37;99711.40;108958;277;39384;-71
2023/10/29 09:13:00;;;;;;;11.30;6.70;;;;;;;15.35;85.63;99702.27;108989;277;38356;-68
2023/10/29 09:15:34;;;;;;;9.40;6.20;;;;;;;15.47;84.97;99700.42;108954;277;38186;-68
2023/10/29 09:18:10;;;;;;;8.10;6.40;;;;;;;15.58;84.14;99707.89;109007;277;38278;-70
2023/10/29 09:20:46;;;;;;;7.90;6.00;;;;;;;15.64;83.68;99711.02;108965;277;38594;-69
2023/10/29 09:23:20;;;;;;;8.00;6.00;;;;;;;15.70;83.00;99711.88;109004;277;39305;-71
2023/10/29 09:25:57;;;;;;;9.40;5.70;;;;;;;15.80;82.75;99711.69;108935;277;37916;-69
2023/10/29 09:28:31;;;;;;;8.50;6.10;;;;;;;15.85;82.66;99712.52;109002;277;38414;-69
2023/10/29 09:31:08;;;;;;;7.90;5.90;;;;;;;15.92;82.03;99709.42;108971;277;39642;-69
2023/10/29 09:33:47;;;;;;;8.40;5.80;;;;;;;15.96;81.82;99705.59;108988;277;38148;-71
2023/10/29 09:36:20;;;;;;;7.80;5.50;;;;;;;16.03;81.70;99699.19;108971;277;38816;-68
2023/10/29 09:38:57;;;;;;;7.30;5.40;;;;;;;16.04;81.34;99693.61;109007;277;38463;-71
2023/10/29 09:41:33;;;;;;;11.40;5.50;;;;;;;16.01;81.00;99697.01;108980;277;38380;-72
2023/10/29 09:44:21;;;;;;;7.00;5.80;;;;;;;15.99;80.51;99691.91;109027;277;38344;-67
2023/10/29 09:47:03;;;;;;;8.00;5.20;;;;;;;15.89;80.05;99691.70;108966;277;38243;-67
2023/10/29 09:49:41;;;;;;;6.90;5.60;;;;;;;15.86;80.94;99688.23;108998;277;38247;-69
2023/10/29 09:52:19;;;;;;;8.30;5.90;;;;;;;16.01;82.00;99678.35;108997;277;39351;-71
2023/10/29 09:54:53;;;;;;;9.90;5.60;;;;;;;16.24;82.20;99676.52;108962;277;38335;-72
2023/10/29 09:57:30;;;;;;;10.30;5.90;;;;;;;16.41;81.08;99679.86;108988;277;38239;-71
2023/10/29 10:00:06;;;;;;;8.00;5.70;;;;;;;16.46;79.94;99677.38;108931;277;38472;-69
2023/10/29 10:02:53;;;;;;;8.80;6.10;;;;;;;16.46;79.35;99675.56;108969;277;38201;-70
2023/10/29 10:05:31;;;;;;;7.40;5.10;;;;;;;16.43;78.92;99677.95;108979;277;38173;-68
2023/10/29 10:08:09;;;;;;;9.10;5.20;;;;;;;16.29;77.34;99678.81;108968;277;41532;-72
2023/10/29 10:10:53;;;;;;;7.90;5.40;;;;;;;16.18;78.48;99675.54;108839;277;175138;-72
2023/10/29 10:13:42;;;;;;;7.20;5.10;;;;;;;16.11;78.87;99673.56;109016;277;38419;-73
2023/10/29 10:16:19;;;;;;;7.10;4.90;;;;;;;16.05;79.06;99672.64;108945;277;38140;-72
2023/10/29 10:19:08;;;;;;;6.60;4.40;;;;;;;16.00;78.36;99670.90;109028;275;38896;-68
2023/10/29 10:21:50;;;;;;;7.80;4.80;;;;;;;15.92;78.56;99668.41;108946;277;39886;-68
2023/10/29 10:24:25;;;;;;;6.30;4.40;;;;;;;15.87;78.26;99663.70;109000;277;38614;-72
2023/10/29 10:26:59;;;;;;;8.20;4.60;;;;;;;15.79;78.34;99666.20;109022;277;38525;-72
2023/10/29 10:29:35;;;;;;;7.00;4.90;;;;;;;15.71;78.29;99665.36;108978;277;38185;-72
2023/10/29 10:32:16;;;;;;;8.10;5.30;;;;;;;15.65;78.44;99661.73;108972;277;38740;-72
2023/10/29 10:34:56;;;;;;;8.10;4.50;;;;;;;15.56;78.33;99659.33;108951;277;38437;-72
2023/10/29 10:37:32;;;;;;;6.10;4.60;;;;;;;15.45;78.01;99652.02;108966;277;38305;-69
2023/10/29 10:40:13;;;;;;;6.90;4.70;;;;;;;15.39;78.42;99649.84;108966;277;38149;-68
2023/10/29 10:42:48;;;;;;;7.60;4.50;;;;;;;15.36;78.26;99644.21;109017;277;38411;-71
2023/10/29 10:45:26;;;;;;;6.40;5.00;;;;;;;15.32;79.14;99638.34;108967;277;38956;-72
2023/10/29 10:48:03;;;;;;;7.00;4.80;;;;;;;15.29;78.98;99635.23;108992;277;38470;-71
2023/10/29 10:50:38;;;;;;;6.40;4.90;;;;;;;15.25;79.06;99629.89;108388;277;766272;-72
2023/10/29 10:53:11;;;;;;;8.50;5.20;;;;;;;15.20;78.90;99630.39;108964;277;39890;-69
2023/10/29 10:55:46;;;;;;;6.90;4.50;;;;;;;15.15;79.14;99629.52;109001;277;38605;-70
2023/10/29 10:58:20;;;;;;;6.60;4.40;;;;;;;15.13;79.07;99634.20;108968;277;38494;-72
2023/10/29 11:00:55;;;;;;;7.50;3.60;;;;;;;15.14;79.40;99632.03;108979;277;38151;-71
2023/10/29 11:03:32;;;;;;;8.40;4.40;;;;;;;15.14;78.89;99630.79;109015;277;38757;-69
2023/10/29 11:06:06;;;;;;;5.30;4.00;;;;;;;15.15;79.59;99633.18;108992;277;38316;-68
2023/10/29 11:08:42;;;;;;;5.20;3.90;;;;;;;15.14;78.49;99635.74;108936;277;39048;-72
2023/10/29 11:11:16;;;;;;;7.60;3.40;;;;;;;15.09;78.53;99637.98;108956;277;38623;-72
2023/10/29 11:13:51;;;;;;;5.80;3.90;;;;;;;15.07;78.36;99633.25;109008;277;39360;-68
2023/10/29 11:16:30;;;;;;;6.40;3.60;;;;;;;15.05;77.57;99627.00;108989;277;38849;-69
2023/10/29 11:19:32;;;;;;;6.90;3.10;;;;;;;15.07;77.75;99620.96;109016;277;39069;-72
2023/10/29 11:22:20;;;;;;;3.60;2.90;;;;;;;15.07;77.54;99616.17;108977;277;39111;-72
2023/10/29 11:25:41;;;;;;;6.00;3.10;;;;;;;15.09;77.47;99609.73;108952;277;38919;-68
2023/10/29 11:28:40;;;;;;;;;;;;;;;15.06;76.65;99606.05;109027;277;39691;-67
2023/10/29 11:31:18;;;;;;;4.60;3.00;;;;;;;15.00;76.09;99599.63;108971;277;38514;-68
2023/10/29 11:34:40;;;;;;;4.50;3.00;;;;;;;14.96;76.06;99594.48;108976;277;38142;-69
2023/10/29 11:37:42;;;;;;;4.60;3.00;;;;;;;14.87;75.64;99592.05;108846;277;38482;-68
2023/10/29 11:40:40;;;;;;;3.70;2.80;;;;;;;14.81;76.01;99590.59;108970;277;39799;-72
2023/10/29 11:43:22;;;;;;;3.30;2.60;;;;;;;14.82;76.20;99589.80;108981;277;39842;-71
2023/10/29 11:46:05;;;;;;;4.90;2.70;;;;;;;14.87;75.92;99591.55;108943;277;39624;-71
2023/10/29 11:48:39;;;;;;;4.50;2.60;;;;;;;14.93;75.84;99590.79;109024;277;39287;-72
2023/10/29 11:51:25;;;;;;;4.10;2.60;;;;;;;14.99;75.84;99591.81;108897;277;39275;-73
2023/10/29 11:54:04;;;;;;;3.90;2.50;;;;;;;15.03;75.89;99591.04;109003;277;38230;-72
2023/10/29 11:56:37;;;;;;;6.10;3.00;;;;;;;15.04;75.40;99589.33;108983;277;39174;-72
2023/10/29 11:59:14;;;;;;;4.00;2.90;;;;;;;15.06;75.39;99579.22;108990;277;38538;-72
2023/10/29 12:01:52;;;;;;;5.10;2.40;;;;;;;15.06;75.15;99574.45;108997;277;38207;-72
2023/10/29 12:04:33;;;;;;;4.60;2.60;;;;;;;15.06;75.31;99566.89;109039;277;38485;-72
2023/10/29 12:07:10;;;;;;;4.70;2.70;;;;;;;15.04;74.83;99559.48;108972;277;38842;-71
2023/10/29 12:09:52;;;;;;;6.10;2.20;;;;;;;15.05;74.29;99561.16;108938;277;38376;-68
2023/10/29 12:12:26;;;;;;;5.60;2.60;;;;;;;15.07;74.50;99554.73;108935;277;38560;-71
2023/10/29 12:15:01;;;;;;;3.20;2.10;;;;;;;15.08;74.61;99552.52;109030;277;39616;-71
2023/10/29 12:17:38;;;;;;;3.90;2.50;;;;;;;15.09;74.33;99547.71;109067;277;38447;-70
2023/10/29 12:20:21;;;;;;;3.60;2.50;;;;;;;15.09;74.04;99546.32;109008;277;38284;-76